NCAR-RAP Real-Time Weather Data

Output produced by METARs form (23 June 2018  19:38 UTC)
found at http://weather.rap.ucar.edu/surface/
 
RJTI 230700Z 13007KT 3000 RA BR SCT006 BKN015 BKN050 20/19 Q1003
RJTI 230618Z VRB01KT 3000 RA BR FEW007 BKN015 BKN050 21/20 Q1004 RMK 1ST007 5SC015 7SC050 A2966
RJTI 230600Z VRB02KT 4000 RA BR FEW007 BKN015 BKN060 21/20 Q1004
RJTI 230500Z 20007KT 170V240 5000 -RA BR FEW007 BKN020 BKN080 22/20 Q1005
RJTI 230400Z 12007KT 100V160 6000 -RA FEW015 SCT025 BKN080 22/20 Q1005
RJTI 230300Z 13007KT 5000 -RA BR FEW015 BKN025 BKN080 22/20 Q1006
RJTI 230200Z VRB02KT 6000 FEW015 SCT025 BKN160 23/19 Q1008
RJTI 230100Z 04005KT 010V120 6000 FEW015 SCT025 BKN160 22/20 Q1007
RJTI 230000Z VRB02KT 6000 FEW010 BKN170 BKN/// 22/20 Q1008
RJTI 222330Z 36004KT 300V050 5000 BR FEW010 BKN180 BKN/// 22/19 Q1008
RJTI 220700Z 15009KT 9999 FEW030 BKN/// 25/21 Q1007
RJTI 220600Z 12011KT 9999 FEW030 BKN/// 26/21 Q1007
RJTI 220500Z 12011KT 9999 FEW030 BKN/// 25/21 Q1007
RJTI 220400Z 12014KT 9999 FEW030 BKN/// 26/19 Q1007
RJTI 220300Z 14005KT 9999 FEW030 BKN/// 26/20 Q1007
RJTI 220200Z 15006KT 9999 FEW030 BKN/// 26/21 Q1008
RJTI 220100Z 15006KT 9999 SCT030 BKN/// 24/21 Q1007
RJTI 220000Z 14005KT 9999 FEW020 SCT030 BKN/// 24/21 Q1007
RJTI 212330Z 11004KT 060V150 9999 BKN020 24/20 Q1007